createdAt,value
2019-01-05T00:00:39.748Z,2.50
2019-01-05T00:03:15.581Z,2.57
2019-01-05T00:05:45.373Z,2.60
2019-01-05T00:08:15.161Z,2.57
2019-01-05T00:10:47.398Z,2.20
2019-01-05T00:13:20.125Z,2.30
2019-01-05T00:15:59.484Z,2.23
2019-01-05T00:18:29.601Z,2.30
2019-01-05T00:20:59.722Z,1.77
2019-01-05T00:23:29.498Z,2.30
2019-01-05T00:26:02.358Z,1.80
2019-01-05T00:28:42.065Z,2.30
2019-01-05T00:31:27.140Z,1.70
2019-01-05T00:34:10.160Z,1.60
2019-01-05T00:36:58.501Z,2.30
2019-01-05T00:39:35.404Z,1.80
2019-01-05T00:42:08.111Z,1.60
2019-01-05T00:44:54.750Z,1.80
2019-01-05T00:47:40.366Z,1.77
2019-01-05T00:50:26.441Z,2.00
2019-01-05T00:53:11.602Z,1.47
2019-01-05T00:55:41.734Z,1.40
2019-01-05T00:58:21.057Z,1.60
2019-01-05T01:00:54.169Z,1.80
2019-01-05T01:03:24.010Z,1.20
2019-01-05T01:05:53.844Z,1.57
2019-01-05T01:08:32.232Z,1.10
2019-01-05T01:11:13.769Z,1.30
2019-01-05T01:14:00.552Z,1.20
2019-01-05T01:16:33.045Z,1.40
2019-01-05T01:19:19.320Z,2.10
2019-01-05T01:21:58.617Z,1.37
2019-01-05T01:24:45.129Z,1.40
2019-01-05T01:27:17.697Z,1.50
2019-01-05T01:29:56.947Z,1.30
2019-01-05T01:32:26.732Z,1.50
2019-01-05T01:34:56.505Z,1.40
2019-01-05T01:37:56.850Z,1.40
2019-01-05T01:40:26.641Z,1.50
2019-01-05T01:43:13.267Z,1.50
2019-01-05T01:45:52.485Z,1.43
2019-01-05T01:48:38.578Z,1.33
2019-01-05T01:51:09.400Z,1.23
2019-01-05T01:53:45.724Z,1.33
2019-01-05T01:56:31.537Z,1.43
2019-01-05T01:59:01.525Z,1.20
2019-01-05T02:01:37.499Z,1.30
2019-01-05T02:04:19.524Z,1.30
2019-01-05T02:07:08.550Z,1.13
2019-01-05T02:09:51.517Z,1.67
2019-01-05T02:12:23.044Z,1.20
2019-01-05T02:14:54.612Z,0.47
2019-01-05T02:17:25.977Z,1.40
2019-01-05T02:20:06.305Z,1.10
2019-01-05T02:22:53.857Z,1.10
2019-01-05T02:25:44.799Z,1.23
2019-01-05T02:28:18.776Z,1.10
2019-01-05T02:30:52.646Z,1.23
2019-01-05T02:33:46.521Z,1.10
2019-01-05T02:36:51.126Z,1.47
2019-01-05T02:39:25.529Z,1.23
2019-01-05T02:42:22.678Z,1.10
2019-01-05T02:45:28.906Z,0.90
2019-01-05T02:48:12.151Z,0.77
2019-01-05T02:50:55.130Z,0.93
2019-01-05T02:53:31.918Z,0.90
2019-01-05T02:56:18.654Z,0.80
2019-01-05T02:59:26.365Z,0.90
2019-01-05T03:02:26.149Z,1.20
2019-01-05T03:05:14.128Z,1.10
2019-01-05T03:07:45.400Z,1.17
2019-01-05T03:10:31.678Z,1.00
2019-01-05T03:13:11.709Z,0.90
2019-01-05T03:16:06.833Z,1.10
2019-01-05T03:18:49.732Z,1.00
2019-01-05T03:21:42.360Z,0.90
2019-01-05T03:24:16.572Z,1.10
2019-01-05T03:27:08.808Z,0.80
2019-01-05T03:29:45.763Z,0.80
2019-01-05T03:32:38.003Z,0.77
2019-01-05T03:35:11.874Z,0.73
2019-01-05T03:37:58.634Z,0.60
2019-01-05T03:40:32.517Z,0.90
2019-01-05T03:43:06.509Z,0.70
2019-01-05T03:45:46.563Z,0.70
2019-01-05T03:48:30.197Z,0.80
2019-01-05T03:51:04.282Z,0.87
2019-01-05T03:53:56.670Z,0.80
2019-01-05T03:56:42.757Z,0.60
2019-01-05T03:59:31.984Z,0.57
2019-01-05T04:02:34.833Z,0.70
2019-01-05T04:05:15.129Z,0.80
2019-01-05T04:08:04.565Z,0.80
2019-01-05T04:10:59.504Z,0.60
2019-01-05T04:13:46.004Z,0.70
2019-01-05T04:16:36.534Z,0.70
2019-01-05T04:19:26.213Z,0.80
2019-01-05T04:22:06.782Z,0.60
2019-01-05T04:25:11.406Z,0.80
2019-01-05T04:28:11.617Z,0.83
2019-01-05T04:30:42.973Z,0.70
2019-01-05T04:33:33.270Z,0.80
2019-01-05T04:36:07.015Z,0.90
2019-01-05T04:39:05.747Z,0.90
2019-01-05T04:41:51.160Z,0.90
2019-01-05T04:44:39.332Z,0.80
2019-01-05T04:47:22.621Z,0.70
2019-01-05T04:50:10.121Z,0.60
2019-01-05T04:53:10.233Z,0.70
2019-01-05T04:55:49.068Z,0.80
2019-01-05T04:58:23.305Z,1.03
2019-01-05T05:01:15.455Z,1.43
2019-01-05T05:03:49.233Z,1.20
2019-01-05T05:06:23.482Z,1.00
2019-01-05T05:09:11.416Z,1.17
2019-01-05T05:11:59.037Z,1.13
2019-01-05T05:15:03.849Z,1.50
2019-01-05T05:17:47.122Z,1.30
2019-01-05T05:20:45.742Z,0.93
2019-01-05T05:23:33.622Z,0.83
2019-01-05T05:26:13.505Z,1.40
2019-01-05T05:29:07.129Z,1.40
2019-01-05T05:31:50.485Z,1.20
2019-01-05T05:34:38.749Z,1.00
2019-01-05T05:37:10.038Z,1.37
2019-01-05T05:39:56.313Z,1.40
2019-01-05T05:42:27.683Z,1.30
2019-01-05T05:45:17.135Z,1.40
2019-01-05T05:48:06.865Z,1.37
2019-01-05T05:50:38.165Z,1.50
2019-01-05T05:53:36.252Z,1.20
2019-01-05T05:56:29.981Z,1.53
2019-01-05T05:59:06.945Z,1.40
2019-01-05T06:01:50.145Z,1.33
2019-01-05T06:04:44.972Z,1.90
2019-01-05T06:07:33.734Z,1.97
2019-01-05T06:10:10.900Z,1.33
2019-01-05T06:12:59.660Z,1.67
2019-01-05T06:15:31.051Z,1.70
2019-01-05T06:18:05.042Z,2.10
2019-01-05T06:21:16.721Z,1.20
2019-01-05T06:24:16.702Z,2.00
2019-01-05T06:27:07.014Z,1.90
2019-01-05T06:29:53.345Z,2.13
2019-01-05T06:32:47.251Z,1.93
2019-01-05T06:35:21.742Z,2.37
2019-01-05T06:37:58.652Z,2.00
2019-01-05T06:41:03.496Z,2.10
2019-01-05T06:43:54.636Z,2.30
2019-01-05T06:46:31.686Z,1.83
2019-01-05T06:52:21.584Z,1.97
2019-01-05T06:55:01.672Z,2.00
2019-01-05T06:57:35.769Z,2.47
2019-01-05T07:00:18.889Z,1.93
2019-01-05T07:02:59.064Z,2.50
2019-01-05T07:05:42.476Z,2.17
2019-01-05T07:08:30.230Z,2.07
2019-01-05T07:11:16.379Z,2.07
2019-01-05T07:13:59.283Z,2.00
2019-01-05T07:16:39.229Z,1.90
2019-01-05T07:19:22.474Z,1.90
2019-01-05T07:22:02.746Z,2.13
2019-01-05T07:24:50.609Z,2.40
2019-01-05T07:27:45.433Z,2.03
2019-01-05T07:30:36.539Z,2.23
2019-01-05T07:33:25.569Z,2.67
2019-01-05T07:36:16.805Z,2.10
2019-01-05T07:39:21.082Z,2.70
2019-01-05T07:42:04.195Z,2.80
2019-01-05T07:44:52.220Z,2.70
2019-01-05T07:47:31.880Z,2.70
2019-01-05T07:50:22.730Z,2.33
2019-01-05T07:53:12.262Z,2.37
2019-01-05T07:56:00.361Z,2.80
2019-01-05T07:58:40.566Z,3.00
2019-01-05T08:01:14.677Z,2.63
2019-01-05T08:03:55.037Z,3.00
2019-01-05T08:06:58.120Z,2.87
2019-01-05T08:09:38.241Z,2.80
2019-01-05T08:12:12.397Z,2.77
2019-01-05T08:15:02.011Z,2.40
2019-01-05T08:17:41.573Z,2.50
2019-01-05T08:20:38.857Z,2.57
2019-01-05T08:23:42.334Z,2.37
2019-01-05T08:26:32.786Z,2.90
2019-01-05T08:29:20.675Z,3.23
2019-01-05T08:32:11.468Z,3.00
2019-01-05T08:34:54.701Z,3.10
2019-01-05T08:37:59.679Z,3.13
2019-01-05T08:40:42.192Z,2.57
2019-01-05T08:43:30.050Z,3.33
2019-01-05T08:46:33.443Z,3.57
2019-01-05T08:49:12.954Z,3.03
2019-01-05T08:51:56.200Z,2.90
2019-01-05T08:54:42.482Z,3.30
2019-01-05T08:57:46.033Z,2.70
2019-01-05T09:00:20.167Z,2.80
2019-01-05T09:03:12.612Z,3.43
2019-01-05T09:06:11.173Z,2.70
2019-01-05T09:09:02.049Z,3.10
2019-01-05T09:11:33.387Z,3.13
2019-01-05T09:14:38.109Z,2.63
2019-01-05T09:17:24.336Z,2.73
2019-01-05T09:20:24.253Z,3.33
2019-01-05T09:23:01.502Z,2.90
2019-01-05T09:26:08.137Z,3.43
2019-01-05T09:29:08.242Z,3.57
2019-01-05T09:32:04.949Z,2.83
2019-01-05T09:35:01.965Z,3.53
2019-01-05T09:37:36.526Z,3.47
2019-01-05T09:40:39.794Z,2.90
2019-01-05T09:43:44.395Z,2.97
2019-01-05T09:46:49.052Z,3.27
2019-01-05T09:49:43.309Z,2.80
2019-01-05T09:52:32.468Z,2.83
2019-01-05T09:55:20.461Z,2.33
2019-01-05T09:57:56.821Z,2.40
2019-01-05T10:01:01.453Z,2.80
2019-01-05T10:03:53.051Z,2.40
2019-01-05T10:06:35.982Z,3.10
2019-01-05T10:09:19.436Z,2.93
2019-01-05T10:12:02.809Z,3.80
2019-01-05T10:14:40.285Z,2.93
2019-01-05T10:20:50.677Z,2.50
2019-01-05T10:23:24.945Z,2.83
2019-01-05T10:25:58.703Z,2.60
2019-01-05T10:28:51.083Z,2.50
2019-01-05T10:31:31.347Z,2.77
2019-01-05T10:34:24.804Z,2.63
2019-01-05T10:37:17.482Z,2.10
2019-01-05T10:40:03.620Z,2.47
2019-01-05T10:42:34.904Z,2.70
2019-01-05T10:45:25.750Z,2.63
2019-01-05T10:48:22.668Z,2.00
2019-01-05T10:51:00.163Z,2.27
2019-01-05T10:53:34.171Z,2.50
2019-01-05T10:56:17.664Z,2.37
2019-01-05T10:59:07.862Z,2.77
2019-01-05T11:01:55.901Z,2.60
2019-01-05T11:04:55.399Z,2.43
2019-01-05T11:07:26.761Z,2.47
2019-01-05T11:10:31.347Z,2.60
2019-01-05T11:13:08.165Z,2.50
2019-01-05T11:16:17.848Z,2.40
2019-01-05T11:19:05.853Z,2.37
2019-01-05T11:21:39.297Z,3.00
2019-01-05T11:24:45.334Z,2.43
2019-01-05T11:27:33.133Z,2.50
2019-01-05T11:30:16.872Z,2.33
2019-01-05T11:33:14.075Z,1.73
2019-01-05T11:35:51.309Z,2.10
2019-01-05T11:38:46.791Z,2.17
2019-01-05T11:41:43.938Z,1.77
2019-01-05T11:44:20.746Z,2.47
2019-01-05T11:47:14.004Z,1.90
2019-01-05T11:49:45.395Z,2.10
2019-01-05T11:52:19.825Z,2.23
2019-01-05T11:55:13.756Z,2.10
2019-01-05T11:57:47.915Z,1.97
2019-01-05T12:00:28.655Z,2.27
2019-01-05T12:06:02.377Z,2.40
2019-01-05T12:08:43.120Z,2.03
2019-01-05T12:11:33.645Z,2.23
2019-01-05T12:14:37.031Z,1.93
2019-01-05T12:17:26.456Z,2.87
2019-01-05T12:20:17.233Z,1.90
2019-01-05T12:23:00.393Z,2.23
2019-01-05T12:25:52.906Z,2.10
2019-01-05T12:28:48.809Z,1.93
2019-01-05T12:31:25.683Z,2.57
2019-01-05T12:34:19.150Z,2.10
2019-01-05T12:37:22.507Z,2.03
2019-01-05T12:40:05.682Z,2.23
2019-01-05T12:42:55.040Z,1.97
2019-01-05T12:45:46.490Z,2.50
2019-01-05T12:48:17.912Z,2.37
2019-01-05T12:50:52.134Z,1.57
2019-01-05T12:53:45.131Z,2.00
2019-01-05T12:56:43.063Z,2.10
2019-01-05T12:59:23.110Z,2.00
2019-01-05T13:02:08.981Z,2.03
2019-01-05T13:04:55.227Z,1.93
2019-01-05T13:07:56.546Z,1.83
2019-01-05T13:10:49.271Z,1.70
2019-01-05T13:16:54.439Z,1.60
2019-01-05T13:19:24.588Z,2.10
2019-01-05T13:22:20.397Z,1.97
2019-01-05T13:25:14.437Z,2.23
2019-01-05T13:28:21.011Z,1.93
2019-01-05T13:30:58.289Z,2.33
2019-01-05T13:33:55.591Z,2.33
2019-01-05T13:36:32.265Z,2.03
2019-01-05T13:39:30.103Z,2.40
2019-01-05T13:42:03.945Z,2.07
2019-01-05T13:44:54.950Z,2.27
2019-01-05T13:47:32.215Z,2.70
2019-01-05T13:50:15.449Z,2.23
2019-01-05T13:52:52.550Z,1.93
2019-01-05T13:55:26.791Z,2.20
2019-01-05T13:58:12.893Z,2.23
2019-01-05T14:01:02.059Z,3.00
2019-01-05T14:03:38.262Z,2.70
2019-01-05T14:06:11.460Z,2.73
2019-01-05T14:08:41.208Z,2.47
2019-01-05T14:11:22.826Z,2.57
2019-01-05T14:13:58.409Z,2.20
2019-01-05T14:16:34.132Z,2.87
2019-01-05T14:19:20.497Z,2.27
2019-01-05T14:21:50.324Z,2.40
2019-01-05T14:24:36.408Z,2.00
2019-01-05T14:27:06.217Z,2.40
2019-01-05T14:29:38.525Z,3.03
2019-01-05T14:32:20.455Z,2.40
2019-01-05T14:35:05.656Z,2.90
2019-01-05T14:37:52.176Z,2.73
2019-01-05T14:40:24.877Z,2.07
2019-01-05T14:42:54.732Z,2.23
2019-01-05T14:45:30.538Z,2.43
2019-01-05T14:48:06.080Z,2.27
2019-01-05T14:50:53.966Z,2.30
2019-01-05T14:53:32.603Z,3.33
2019-01-05T14:56:02.397Z,2.00
2019-01-05T14:58:32.277Z,2.13
2019-01-05T15:01:18.665Z,1.80
2019-01-05T15:03:51.341Z,2.13
2019-01-05T15:06:21.080Z,1.90
2019-01-05T15:08:56.716Z,2.00
2019-01-05T15:11:26.484Z,1.70
2019-01-05T15:13:58.631Z,1.60
2019-01-05T15:16:28.434Z,1.73
2019-01-05T15:19:14.902Z,1.60
2019-01-05T15:21:53.828Z,2.03
2019-01-05T15:24:40.083Z,1.90
2019-01-05T15:27:19.065Z,1.93
2019-01-05T15:30:05.548Z,1.97
2019-01-05T15:32:35.376Z,2.10
2019-01-05T15:35:17.659Z,2.10
2019-01-05T15:37:59.486Z,2.57
2019-01-05T15:40:29.264Z,2.00
2019-01-05T15:43:15.381Z,2.07
2019-01-05T15:45:47.548Z,2.17
2019-01-05T15:48:33.669Z,2.07
2019-01-05T15:51:19.847Z,2.30
2019-01-05T15:53:55.752Z,2.60
2019-01-05T15:56:37.878Z,2.23
2019-01-05T15:59:22.856Z,2.20
2019-01-05T16:02:09.349Z,2.10
2019-01-05T16:04:39.221Z,2.63
2019-01-05T16:07:25.750Z,2.20
2019-01-05T16:10:12.121Z,2.10
2019-01-05T16:12:58.716Z,2.00
2019-01-05T16:15:37.517Z,2.90
2019-01-05T16:18:23.762Z,2.03
2019-01-05T16:20:53.617Z,2.60
2019-01-05T16:23:42.080Z,2.73
2019-01-05T16:26:28.250Z,1.70
2019-01-05T16:29:12.960Z,2.43
2019-01-05T16:31:57.903Z,2.90
2019-01-05T16:34:27.823Z,2.20
2019-01-05T16:37:06.837Z,2.07
2019-01-05T16:39:39.273Z,2.33
2019-01-05T16:42:09.049Z,2.30
2019-01-05T16:44:41.594Z,2.20
2019-01-05T16:47:17.147Z,1.97
2019-01-05T16:49:49.920Z,2.30
2019-01-05T16:52:22.861Z,2.33
2019-01-05T16:55:09.397Z,3.10
2019-01-05T16:57:40.793Z,2.20
2019-01-05T17:00:29.226Z,2.00
2019-01-05T17:03:14.161Z,2.37
2019-01-05T17:09:05.529Z,2.10
2019-01-05T17:11:38.218Z,2.00
2019-01-05T17:14:25.052Z,2.23
2019-01-05T17:16:57.565Z,1.80
2019-01-05T17:19:36.781Z,2.10
2019-01-05T17:22:04.797Z,2.07
2019-01-05T17:24:37.674Z,1.33
2019-01-05T17:27:07.462Z,1.50
2019-01-05T17:29:49.303Z,1.60
2019-01-05T17:32:19.405Z,1.80
2019-01-05T17:34:49.182Z,1.30
2019-01-05T17:37:35.909Z,1.47
2019-01-05T17:40:12.408Z,1.33
2019-01-05T17:43:00.618Z,1.47
2019-01-05T17:45:30.430Z,1.40
2019-01-05T17:48:16.537Z,1.90
2019-01-05T17:50:51.840Z,1.67
2019-01-05T17:53:24.725Z,1.20
2019-01-05T17:55:57.308Z,1.17
2019-01-05T17:58:29.735Z,1.17
2019-01-05T18:01:02.677Z,1.67
2019-01-05T18:03:36.468Z,1.10
2019-01-05T18:06:11.768Z,1.03
2019-01-05T18:08:50.069Z,1.47
2019-01-05T18:11:28.853Z,0.93
2019-01-05T18:14:13.960Z,0.80
2019-01-05T18:16:43.835Z,1.00
2019-01-05T18:19:42.736Z,1.07
2019-01-05T18:22:15.549Z,1.30
2019-01-05T18:24:58.312Z,1.27
2019-01-05T18:27:28.317Z,1.63
2019-01-05T18:30:00.995Z,1.30
2019-01-05T18:32:30.868Z,1.20
2019-01-05T18:35:17.411Z,1.20
2019-01-05T18:37:47.250Z,1.33
2019-01-05T18:40:33.712Z,1.10
2019-01-05T18:43:15.490Z,1.73
2019-01-05T18:45:59.975Z,1.73
2019-01-05T18:48:45.997Z,0.93
2019-01-05T18:51:18.941Z,1.40
2019-01-05T18:53:51.752Z,1.00
2019-01-05T18:56:24.705Z,1.10
2019-01-05T18:58:55.636Z,1.17
2019-01-05T19:01:28.542Z,0.80
2019-01-05T19:04:01.362Z,1.10
2019-01-05T19:06:47.529Z,1.13
2019-01-05T19:09:25.885Z,1.00
2019-01-05T19:12:08.401Z,1.00
2019-01-05T19:14:49.226Z,0.87
2019-01-05T19:17:21.494Z,0.83
2019-01-05T19:19:51.262Z,1.17
2019-01-05T19:22:29.919Z,1.17
2019-01-05T19:25:02.405Z,1.20
2019-01-05T19:27:34.930Z,0.93
2019-01-05T19:30:21.710Z,1.00
2019-01-05T19:33:07.902Z,1.00
2019-01-05T19:35:37.905Z,1.20
2019-01-05T19:38:24.305Z,1.40
2019-01-05T19:40:56.795Z,1.17
2019-01-05T19:43:28.125Z,0.90
2019-01-05T19:45:57.962Z,1.17
2019-01-05T19:48:42.706Z,1.00
2019-01-05T19:51:36.694Z,1.10
2019-01-05T19:54:07.044Z,0.87
2019-01-05T19:56:42.854Z,1.20
2019-01-05T19:59:27.602Z,1.17
2019-01-05T20:02:13.536Z,1.27
2019-01-05T20:04:55.670Z,1.30
2019-01-05T20:07:25.449Z,1.30
2019-01-05T20:09:55.255Z,1.23
2019-01-05T20:12:34.317Z,1.00
2019-01-05T20:15:20.472Z,1.20
2019-01-05T20:18:02.472Z,1.10
2019-01-05T20:20:36.607Z,1.10
2019-01-05T20:23:03.731Z,1.23
2019-01-05T20:25:33.535Z,1.27
2019-01-05T20:28:21.919Z,1.00
2019-01-05T20:31:00.519Z,1.07
2019-01-05T20:33:46.732Z,1.00
2019-01-05T20:36:22.394Z,1.30
2019-01-05T20:39:08.787Z,1.00
2019-01-05T20:41:38.611Z,1.03
2019-01-05T20:44:36.674Z,1.37
2019-01-05T20:47:12.570Z,1.63
2019-01-05T20:49:57.701Z,1.30
2019-01-05T20:52:45.678Z,0.93
2019-01-05T20:55:15.485Z,1.10
2019-01-05T20:58:03.756Z,1.17
2019-01-05T21:00:42.552Z,1.00
2019-01-05T21:03:12.371Z,0.70
2019-01-05T21:05:45.085Z,1.10
2019-01-05T21:08:29.949Z,1.57
2019-01-05T21:10:59.796Z,1.20
2019-01-05T21:13:46.316Z,1.20
2019-01-05T21:16:31.110Z,1.13
2019-01-05T21:19:00.889Z,1.70
2019-01-05T21:21:36.682Z,1.30
2019-01-05T21:24:12.702Z,1.70
2019-01-05T21:26:57.206Z,1.17
2019-01-05T21:29:39.221Z,1.80
2019-01-05T21:32:25.709Z,2.70
2019-01-05T21:34:55.523Z,1.50
2019-01-05T21:37:28.333Z,1.57
2019-01-05T21:40:07.243Z,2.70
2019-01-05T21:42:49.372Z,1.67
2019-01-05T21:45:35.987Z,1.87
2019-01-05T21:48:22.464Z,2.07
2019-01-05T21:51:03.948Z,2.00
2019-01-05T21:53:39.957Z,2.10
2019-01-05T21:56:12.504Z,1.83
2019-01-05T21:58:58.805Z,1.80
2019-01-05T22:01:34.225Z,2.00
2019-01-05T22:04:19.104Z,2.00
2019-01-05T22:07:04.980Z,1.60
2019-01-05T22:09:34.730Z,1.67
2019-01-05T22:12:04.489Z,1.90
2019-01-05T22:14:40.301Z,1.57
2019-01-05T22:17:10.089Z,1.83
2019-01-05T22:19:42.936Z,1.80
2019-01-05T22:22:15.545Z,1.80
2019-01-05T22:25:03.602Z,1.60
2019-01-05T22:27:45.294Z,1.60
2019-01-05T22:30:33.100Z,1.83
2019-01-05T22:33:17.925Z,1.43
2019-01-05T22:35:50.555Z,1.70
2019-01-05T22:38:37.077Z,1.47
2019-01-05T22:41:23.472Z,1.47
2019-01-05T22:44:11.344Z,1.90
2019-01-05T22:46:47.098Z,1.37
2019-01-05T22:49:20.223Z,1.53
2019-01-05T22:51:51.815Z,1.50
2019-01-05T22:54:38.065Z,1.40
2019-01-05T22:57:10.718Z,1.30
2019-01-05T22:59:50.063Z,1.53
2019-01-05T23:02:29.134Z,1.40
2019-01-05T23:05:01.770Z,1.60
2019-01-05T23:07:47.954Z,1.27
2019-01-05T23:10:17.861Z,1.40
2019-01-05T23:13:05.872Z,1.20
2019-01-05T23:15:41.992Z,1.43
2019-01-05T23:18:17.900Z,1.30
2019-01-05T23:21:03.091Z,1.27
2019-01-05T23:23:32.872Z,1.50
2019-01-05T23:26:11.566Z,1.50
2019-01-05T23:28:41.313Z,1.70
2019-01-05T23:31:11.085Z,1.63
2019-01-05T23:33:58.765Z,1.77
2019-01-05T23:36:28.523Z,1.53
2019-01-05T23:39:16.154Z,1.60
2019-01-05T23:42:04.455Z,1.60
2019-01-05T23:44:50.800Z,1.63
2019-01-05T23:47:36.697Z,1.60
2019-01-05T23:50:19.568Z,1.90
2019-01-05T23:53:01.356Z,2.00
2019-01-05T23:55:49.201Z,1.57
2019-01-05T23:58:39.413Z,1.70
